Brenes, Spain
Current Conditions -  °F | °C
As of 1:00 AM on Saturday 22 Nov 2014 (Local Time) from LEZL Reporting Station
Clear Clear  
Wind Chill: 61°   Ceiling: Unl
Heat Index: 61°   Visibility: 6mi
Dew Point: 54°   Wind: 8mph
Humidity: 77%   Direction: 50°NE
Pressure: 29.88"   Gusts: NA
Location:  37.55°N, 5.87°W
Report Text: LEZL 220000Z 05007KT CAVOK 16/12 Q1012 NOSIG
Loading
Personal Weather Stations






























Interactive Weather Map New forecast layout! Learn more

10-Day Weather Forecast

Advertisements
Track Severe Weather on mobile